ESMT

Details ICAO ESMT (HAD)
Name Halmstad
Region Sweden
Timezone Europe/Stockholm (UTC+1.0)
Plans Departing 34
Arriving 26
Stats Elevation 101 ft / 31 m (AMSL)
Location 56.691097° 12.820203°
Runways 1
Magnetic Variation 3.853° E
Sunrise 2017-12-18 07:42:42 UTC / 2017-12-18 08:42:42 Local
Sunset 2017-12-18 14:30:38 UTC / 2017-12-18 15:30:38 Local
Advertisement - Login to hide

Runways

ID Width Length Bearing (true) Bearing (mag) Surface Threshold Offset Overrun Length
01 131 ft / 40 m 7,410 ft / 2,259 m 6.19° 2.34° Asphalt 0 ft / 0 m 0 ft / 0 m
19 131 ft / 40 m 7,410 ft / 2,259 m 186.19° 182.34° Asphalt 0 ft / 0 m 0 ft / 0 m

Approach Navaids

Runway Type Ident Frequency Range Bearing (true) Bearing (mag) Slope Elevation
19 Localiser MT 110.10 MHz 18 nm / 33 km 186.18° 182.32° - 101 ft / 31 m (AMSL)
19 Glidescope MT 110.10 MHz 10 nm / 19 km 186.19° 182.34° 3.00° 101 ft / 31 m (AMSL)

Map

Weather


0- 5 10 15 20 25 30 35+ Temperature / ° C

Clouds and Precipitation
Forecast for 2017-12-18 06:00 UTC. Updated 21 minutes ago

Ground ~20,000 ft ~40,000 ft Winds

METAR

ESMT 180320Z AUTO 14007KT 9999 FEW009/// SCT029/// M01/M02 Q1019

TAF

Not found

Frequencies

Tower 135.05 MHz TWR
Tower 130.10 MHz TWR
Warning: Do not use this data for real-world aviation or navigation. No guarantee of current accuracy is given.